createdAt,value
2023-02-03T00:00:31.927Z,0.60
2023-02-03T00:03:19.228Z,0.70
2023-02-03T00:05:47.230Z,0.60
2023-02-03T00:08:15.924Z,0.60
2023-02-03T00:10:43.501Z,0.60
2023-02-03T00:13:10.770Z,0.70
2023-02-03T00:15:38.323Z,0.70
2023-02-03T00:18:05.514Z,0.70
2023-02-03T00:20:33.072Z,0.70
2023-02-03T00:23:08.678Z,0.80
2023-02-03T00:25:36.593Z,0.80
2023-02-03T00:28:04.461Z,0.80
2023-02-03T00:30:34.143Z,0.80
2023-02-03T00:33:01.830Z,0.80
2023-02-03T00:35:29.497Z,0.90
2023-02-03T00:37:57.463Z,0.80
2023-02-03T00:40:27.419Z,1.00
2023-02-03T00:42:55.050Z,0.80
2023-02-03T00:45:23.648Z,0.90
2023-02-03T00:47:50.872Z,0.90
2023-02-03T00:50:18.325Z,0.80
2023-02-03T00:52:45.687Z,0.80
2023-02-03T00:55:13.071Z,0.80
2023-02-03T00:57:40.290Z,0.80
2023-02-03T01:00:08.425Z,0.80
2023-02-03T01:02:36.741Z,0.80
2023-02-03T01:05:04.456Z,0.80
2023-02-03T01:07:33.441Z,0.70
2023-02-03T01:10:01.023Z,0.70
2023-02-03T01:12:30.506Z,0.70
2023-02-03T01:14:59.215Z,0.70
2023-02-03T01:17:26.460Z,0.80
2023-02-03T01:19:53.972Z,0.60
2023-02-03T01:22:21.157Z,0.60
2023-02-03T01:24:50.232Z,0.70
2023-02-03T01:27:17.482Z,0.70
2023-02-03T01:29:44.840Z,0.50
2023-02-03T01:32:11.962Z,0.50
2023-02-03T01:34:39.479Z,0.50
2023-02-03T01:37:06.547Z,0.40
2023-02-03T01:39:33.954Z,0.50
2023-02-03T01:42:01.122Z,0.30
2023-02-03T01:44:55.876Z,0.30
2023-02-03T01:47:36.546Z,0.30
2023-02-03T01:50:18.745Z,0.30
2023-02-03T01:52:53.216Z,0.20
2023-02-03T01:55:26.560Z,0.20
2023-02-03T01:58:11.028Z,0.40
2023-02-03T02:00:38.572Z,0.10
2023-02-03T02:03:07.405Z,0.30
2023-02-03T02:05:53.355Z,0.10
2023-02-03T02:08:22.735Z,0.10
2023-02-03T02:10:51.182Z,0.10
2023-02-03T02:13:19.981Z,0.00
2023-02-03T02:16:06.014Z,0.10
2023-02-03T02:18:51.549Z,0.10
2023-02-03T02:21:36.977Z,0.20
2023-02-03T02:24:22.805Z,0.20
2023-02-03T02:27:15.019Z,0.60
2023-02-03T02:30:01.081Z,0.20
2023-02-03T02:32:34.314Z,0.20
2023-02-03T02:35:28.748Z,0.20
2023-02-03T02:38:11.160Z,0.30
2023-02-03T02:40:54.439Z,0.30
2023-02-03T02:43:30.009Z,0.30
2023-02-03T02:46:11.197Z,0.30
2023-02-03T02:48:43.663Z,0.50
2023-02-03T02:51:14.270Z,0.30
2023-02-03T02:53:49.458Z,0.40
2023-02-03T02:56:18.831Z,0.70
2023-02-03T02:58:49.651Z,0.40
2023-02-03T03:01:17.996Z,0.50
2023-02-03T03:03:46.108Z,1.00
2023-02-03T03:06:22.803Z,0.20
2023-02-03T03:09:16.868Z,1.00
2023-02-03T03:11:51.712Z,0.20
2023-02-03T03:14:21.505Z,0.20
2023-02-03T03:16:57.034Z,0.10
2023-02-03T03:19:28.429Z,0.20
2023-02-03T03:22:00.256Z,0.00
2023-02-03T03:24:32.318Z,0.00
2023-02-03T03:27:10.310Z,0.00
2023-02-03T03:29:41.293Z,-0.10
2023-02-03T03:32:08.972Z,-0.20
2023-02-03T03:34:36.637Z,-0.20
2023-02-03T03:37:14.131Z,-0.20
2023-02-03T03:39:58.559Z,0.00
2023-02-03T03:42:48.963Z,-0.30
2023-02-03T03:45:23.085Z,0.20
2023-02-03T03:48:17.454Z,-0.30
2023-02-03T03:50:51.621Z,-0.30
2023-02-03T03:53:21.072Z,-0.30
2023-02-03T03:55:51.620Z,-0.10
2023-02-03T03:58:25.126Z,-0.30
2023-02-03T04:00:57.933Z,-0.20
2023-02-03T04:03:33.487Z,-0.30
2023-02-03T04:06:00.928Z,-0.30
2023-02-03T04:08:28.098Z,-0.30
2023-02-03T04:10:55.462Z,-0.30
2023-02-03T04:13:22.731Z,0.10
2023-02-03T04:15:50.142Z,-0.30
2023-02-03T04:18:17.439Z,-0.10
2023-02-03T04:20:45.014Z,-0.20
2023-02-03T04:23:12.238Z,-0.20
2023-02-03T04:25:39.674Z,0.60
2023-02-03T04:28:06.868Z,-0.20
2023-02-03T04:30:34.279Z,-0.20
2023-02-03T04:33:01.545Z,-0.30
2023-02-03T04:35:28.987Z,-0.20
2023-02-03T04:37:56.088Z,0.20
2023-02-03T04:40:23.556Z,0.40
2023-02-03T04:42:50.709Z,0.50
2023-02-03T04:45:18.285Z,-0.30
2023-02-03T04:47:45.450Z,-0.30
2023-02-03T04:50:12.900Z,1.00
2023-02-03T04:52:40.127Z,-0.30
2023-02-03T04:55:08.105Z,-0.30
2023-02-03T04:57:35.302Z,-0.40
2023-02-03T05:00:03.601Z,0.30
2023-02-03T05:02:30.746Z,-0.20
2023-02-03T05:04:58.170Z,-0.50
2023-02-03T05:07:25.264Z,-0.40
2023-02-03T05:09:52.686Z,-0.40
2023-02-03T05:12:19.758Z,-0.40
2023-02-03T05:14:47.320Z,-0.40
2023-02-03T05:17:14.503Z,-0.50
2023-02-03T05:19:42.029Z,-0.50
2023-02-03T05:22:09.159Z,0.50
2023-02-03T05:24:36.551Z,0.30
2023-02-03T05:27:03.805Z,-0.60
2023-02-03T05:29:31.273Z,-0.60
2023-02-03T05:31:58.549Z,-0.50
2023-02-03T05:34:26.103Z,-0.70
2023-02-03T05:36:53.378Z,-0.80
2023-02-03T05:39:20.878Z,-0.80
2023-02-03T05:41:54.104Z,-0.80
2023-02-03T05:44:39.896Z,-0.80
2023-02-03T05:47:07.648Z,0.20
2023-02-03T05:49:34.866Z,0.40
2023-02-03T05:52:02.388Z,-0.90
2023-02-03T05:54:29.441Z,0.00
2023-02-03T05:56:57.119Z,-0.90
2023-02-03T05:59:25.140Z,-1.00
2023-02-03T06:01:52.822Z,-1.00
2023-02-03T06:04:20.054Z,-1.00
2023-02-03T06:06:47.929Z,0.10
2023-02-03T06:09:15.098Z,-1.00
2023-02-03T06:11:42.840Z,-1.00
2023-02-03T06:14:09.929Z,-1.10
2023-02-03T06:16:37.359Z,-1.00
2023-02-03T06:19:05.030Z,-0.10
2023-02-03T06:21:32.478Z,-0.50
2023-02-03T06:23:59.830Z,-1.10
2023-02-03T06:26:27.301Z,-1.10
2023-02-03T06:28:54.538Z,-1.10
2023-02-03T06:31:22.050Z,-1.00
2023-02-03T06:33:49.524Z,-1.10
2023-02-03T06:36:16.930Z,-1.10
2023-02-03T06:38:44.062Z,-1.10
2023-02-03T06:41:11.558Z,-1.10
2023-02-03T06:43:38.718Z,-0.90
2023-02-03T06:46:06.382Z,-0.80
2023-02-03T06:48:33.619Z,-0.70
2023-02-03T06:51:01.599Z,-1.10
2023-02-03T06:53:38.401Z,-1.00
2023-02-03T06:56:06.201Z,-1.00
2023-02-03T06:58:33.290Z,-1.00
2023-02-03T07:01:00.786Z,-0.90
2023-02-03T07:03:27.923Z,-1.00
2023-02-03T07:05:55.292Z,-1.00
2023-02-03T07:08:22.414Z,-0.90
2023-02-03T07:10:56.753Z,-0.40
2023-02-03T07:13:23.825Z,-0.90
2023-02-03T07:15:51.270Z,-0.80
2023-02-03T07:18:35.967Z,0.20
2023-02-03T07:21:07.312Z,-0.90
2023-02-03T07:23:34.658Z,-0.80
2023-02-03T07:26:04.739Z,-0.10
2023-02-03T07:28:32.981Z,-0.90
2023-02-03T07:31:01.191Z,-0.90
2023-02-03T07:33:29.035Z,-0.80
2023-02-03T07:35:57.983Z,0.70
2023-02-03T07:38:27.593Z,-0.10
2023-02-03T07:40:55.719Z,-0.80
2023-02-03T07:43:23.230Z,-0.60
2023-02-03T07:45:50.673Z,-0.60
2023-02-03T07:48:18.077Z,0.20
2023-02-03T07:50:45.853Z,-0.80
2023-02-03T07:53:13.044Z,0.20
2023-02-03T07:55:40.562Z,-0.70
2023-02-03T07:58:07.662Z,-0.60
2023-02-03T08:00:35.949Z,0.10
2023-02-03T08:03:03.269Z,-0.50
2023-02-03T08:05:30.755Z,-0.50
2023-02-03T08:07:59.472Z,-0.30
2023-02-03T08:10:27.318Z,0.40
2023-02-03T08:12:55.914Z,-0.40
2023-02-03T08:15:23.384Z,0.30
2023-02-03T08:17:50.568Z,1.20
2023-02-03T08:20:18.395Z,-0.20
2023-02-03T08:22:45.996Z,-0.10
2023-02-03T08:25:13.803Z,0.60
2023-02-03T08:27:41.509Z,0.10
2023-02-03T08:30:12.263Z,0.00
2023-02-03T08:32:39.456Z,0.10
2023-02-03T08:35:08.128Z,0.20
2023-02-03T08:37:35.497Z,0.20
2023-02-03T08:40:03.275Z,0.30
2023-02-03T08:42:30.703Z,0.40
2023-02-03T08:44:58.428Z,0.50
2023-02-03T08:47:26.541Z,0.70
2023-02-03T08:49:54.072Z,0.60
2023-02-03T08:52:22.193Z,0.60
2023-02-03T08:54:49.930Z,0.70
2023-02-03T08:57:17.185Z,0.70
2023-02-03T08:59:45.122Z,1.10
2023-02-03T09:02:16.920Z,0.70
2023-02-03T09:04:45.751Z,0.80
2023-02-03T09:07:13.597Z,0.80
2023-02-03T09:09:41.208Z,0.80
2023-02-03T09:12:09.166Z,0.90
2023-02-03T09:14:36.781Z,0.90
2023-02-03T09:17:05.693Z,0.90
2023-02-03T09:19:35.545Z,1.00
2023-02-03T09:22:03.995Z,1.00
2023-02-03T09:24:32.028Z,1.10
2023-02-03T09:27:01.247Z,1.10
2023-02-03T09:29:28.891Z,1.20
2023-02-03T09:31:56.116Z,1.20
2023-02-03T09:34:23.725Z,1.30
2023-02-03T09:36:51.503Z,1.40
2023-02-03T09:39:19.060Z,1.40
2023-02-03T09:42:01.487Z,1.40
2023-02-03T09:44:37.691Z,1.50
2023-02-03T09:47:13.470Z,1.60
2023-02-03T09:49:50.464Z,1.60
2023-02-03T09:52:28.014Z,1.60
2023-02-03T09:55:13.775Z,1.60
2023-02-03T09:57:47.218Z,1.60
2023-02-03T10:00:44.758Z,1.70
2023-02-03T10:03:20.252Z,1.70
2023-02-03T10:06:02.570Z,1.70
2023-02-03T10:08:45.631Z,1.70
2023-02-03T10:11:52.451Z,1.70
2023-02-03T10:14:53.754Z,1.70
2023-02-03T10:17:36.321Z,1.80
2023-02-03T10:20:09.947Z,1.80
2023-02-03T10:22:43.318Z,1.80
2023-02-03T10:25:20.846Z,1.80
2023-02-03T10:27:49.428Z,1.90
2023-02-03T10:30:19.775Z,1.90
2023-02-03T10:33:02.315Z,1.90
2023-02-03T10:35:40.875Z,1.90
2023-02-03T10:38:19.215Z,1.90
2023-02-03T10:40:47.358Z,2.00
2023-02-03T10:43:33.667Z,2.00
2023-02-03T10:46:00.942Z,2.10
2023-02-03T10:48:28.910Z,2.10
2023-02-03T10:50:57.467Z,2.10
2023-02-03T10:53:32.113Z,2.10
2023-02-03T10:56:13.023Z,2.10
2023-02-03T10:58:48.568Z,2.20
2023-02-03T11:01:17.945Z,2.20
2023-02-03T11:03:56.143Z,2.30
2023-02-03T11:06:23.642Z,2.40
2023-02-03T11:08:52.465Z,2.50
2023-02-03T11:11:28.396Z,2.60
2023-02-03T11:14:16.882Z,2.60
2023-02-03T11:16:47.352Z,2.70
2023-02-03T11:19:20.765Z,2.70
2023-02-03T11:21:50.559Z,2.60
2023-02-03T11:24:21.138Z,2.60
2023-02-03T11:27:18.511Z,2.50
2023-02-03T11:29:50.349Z,2.40
2023-02-03T11:32:23.068Z,2.30
2023-02-03T11:34:58.599Z,2.20
2023-02-03T11:37:42.510Z,2.30
2023-02-03T11:40:11.641Z,2.40
2023-02-03T11:42:42.060Z,2.40
2023-02-03T11:45:26.333Z,2.40
2023-02-03T11:48:14.468Z,2.40
2023-02-03T11:50:55.353Z,2.30
2023-02-03T11:53:47.840Z,2.30
2023-02-03T11:56:55.098Z,2.30
2023-02-03T11:59:28.582Z,2.30
2023-02-03T12:02:01.863Z,2.50
2023-02-03T12:04:46.977Z,2.30
2023-02-03T12:07:14.723Z,2.30
2023-02-03T12:10:02.280Z,2.30
2023-02-03T12:12:43.250Z,2.20
2023-02-03T12:15:16.360Z,2.30
2023-02-03T12:17:52.902Z,2.20
2023-02-03T12:20:33.096Z,2.30
2023-02-03T12:23:19.611Z,2.30
2023-02-03T12:26:04.991Z,2.30
2023-02-03T12:28:41.832Z,2.20
2023-02-03T12:31:18.896Z,2.30
2023-02-03T12:33:54.163Z,2.30
2023-02-03T12:36:45.543Z,2.40
2023-02-03T12:39:29.266Z,2.30
2023-02-03T12:42:24.357Z,2.30
2023-02-03T12:45:00.490Z,2.20
2023-02-03T12:47:34.617Z,2.20
2023-02-03T12:50:17.138Z,2.20
2023-02-03T12:52:53.141Z,2.10
2023-02-03T12:55:39.020Z,2.20
2023-02-03T12:58:34.850Z,2.20
2023-02-03T13:01:11.126Z,2.10
2023-02-03T13:04:05.876Z,2.10
2023-02-03T13:06:58.904Z,2.10
2023-02-03T13:09:38.371Z,2.10
2023-02-03T13:12:17.882Z,2.10
2023-02-03T13:14:53.408Z,2.10
2023-02-03T13:17:27.237Z,2.10
2023-02-03T13:20:12.725Z,2.00
2023-02-03T13:22:40.147Z,2.10
2023-02-03T13:25:26.035Z,2.10
2023-02-03T13:28:30.989Z,2.10
2023-02-03T13:31:01.421Z,2.10
2023-02-03T13:33:45.476Z,2.10
2023-02-03T13:36:27.777Z,2.10
2023-02-03T13:39:16.748Z,2.10
2023-02-03T13:41:52.142Z,2.10
2023-02-03T13:44:26.969Z,2.00
2023-02-03T13:46:57.778Z,2.10
2023-02-03T13:49:34.625Z,2.00
2023-02-03T13:52:02.364Z,2.00
2023-02-03T13:54:37.905Z,2.00
2023-02-03T13:57:18.346Z,2.00
2023-02-03T13:59:46.282Z,2.00
2023-02-03T14:02:19.198Z,2.00
2023-02-03T14:04:46.733Z,2.00
2023-02-03T14:07:33.405Z,2.00
2023-02-03T14:10:13.165Z,2.00
2023-02-03T14:12:52.334Z,2.00
2023-02-03T14:15:26.270Z,2.00
2023-02-03T14:17:54.832Z,2.00
2023-02-03T14:20:28.213Z,2.00
2023-02-03T14:23:07.520Z,2.00
2023-02-03T14:25:40.794Z,1.90
2023-02-03T14:28:29.081Z,1.90
2023-02-03T14:31:17.596Z,1.90
2023-02-03T14:34:07.123Z,1.80
2023-02-03T14:36:52.995Z,1.90
2023-02-03T14:39:20.239Z,1.90
2023-02-03T14:41:52.806Z,1.90
2023-02-03T14:44:50.025Z,1.80
2023-02-03T14:47:17.435Z,1.80
2023-02-03T14:50:05.672Z,1.80
2023-02-03T14:52:53.616Z,1.80
2023-02-03T14:55:35.593Z,1.80
2023-02-03T14:58:14.125Z,1.70
2023-02-03T15:00:41.461Z,1.70
2023-02-03T15:03:12.036Z,1.70
2023-02-03T15:05:39.245Z,1.70
2023-02-03T15:08:46.912Z,1.70
2023-02-03T15:11:34.204Z,1.60
2023-02-03T15:14:34.512Z,1.60
2023-02-03T15:17:10.756Z,1.60
2023-02-03T15:19:42.727Z,1.60
2023-02-03T15:22:20.004Z,1.60
2023-02-03T15:24:48.147Z,1.70
2023-02-03T15:27:41.656Z,1.60
2023-02-03T15:30:35.205Z,1.60
2023-02-03T15:33:30.984Z,1.60
2023-02-03T15:36:10.053Z,1.60
2023-02-03T15:38:46.076Z,1.60
2023-02-03T15:41:31.590Z,1.60
2023-02-03T15:44:06.453Z,1.60
2023-02-03T15:46:42.683Z,1.60
2023-02-03T15:49:32.785Z,1.60
2023-02-03T15:52:20.898Z,1.60
2023-02-03T15:54:54.746Z,1.60
2023-02-03T15:57:27.802Z,1.50
2023-02-03T16:00:10.556Z,1.50
2023-02-03T16:02:45.951Z,1.50
2023-02-03T16:05:39.527Z,1.50
2023-02-03T16:08:48.980Z,1.50
2023-02-03T16:11:22.951Z,1.50
2023-02-03T16:13:51.043Z,1.50
2023-02-03T16:16:23.414Z,1.50
2023-02-03T16:19:00.545Z,1.50
2023-02-03T16:21:30.087Z,1.50
2023-02-03T16:23:59.237Z,1.50
2023-02-03T16:26:28.272Z,1.50
2023-02-03T16:29:35.217Z,1.50
2023-02-03T16:32:20.863Z,1.40
2023-02-03T16:35:06.776Z,1.50
2023-02-03T16:38:01.512Z,1.40
2023-02-03T16:40:47.820Z,1.40
2023-02-03T16:43:35.239Z,1.40
2023-02-03T16:46:21.567Z,1.40
2023-02-03T16:49:07.129Z,1.50
2023-02-03T16:51:40.035Z,1.40
2023-02-03T16:54:11.301Z,1.40
2023-02-03T16:56:39.035Z,1.30
2023-02-03T16:59:06.505Z,1.30
2023-02-03T17:01:34.332Z,1.40
2023-02-03T17:04:02.070Z,1.30
2023-02-03T17:06:30.151Z,1.30
2023-02-03T17:08:59.042Z,1.30
2023-02-03T17:11:27.122Z,1.30
2023-02-03T17:13:54.399Z,1.30
2023-02-03T17:16:24.577Z,1.30
2023-02-03T17:18:52.176Z,1.30
2023-02-03T17:21:24.678Z,1.30
2023-02-03T17:23:51.888Z,1.30
2023-02-03T17:26:19.532Z,1.30
2023-02-03T17:28:46.891Z,1.30
2023-02-03T17:31:17.920Z,1.20
2023-02-03T17:33:46.028Z,1.30
2023-02-03T17:36:15.878Z,1.30
2023-02-03T17:55:19.691Z,1.30
2023-02-03T17:57:47.089Z,1.30
2023-02-03T18:00:14.720Z,1.30
2023-02-03T18:02:43.256Z,1.30
2023-02-03T18:05:10.813Z,1.30
2023-02-03T18:07:38.314Z,1.30
2023-02-03T18:10:05.856Z,1.30
2023-02-03T18:12:33.209Z,1.30
2023-02-03T18:15:00.354Z,1.30
2023-02-03T18:17:27.863Z,1.30
2023-02-03T18:19:56.573Z,1.30
2023-02-03T18:22:24.367Z,1.40
2023-02-03T18:24:52.626Z,1.30
2023-02-03T18:27:23.813Z,1.30
2023-02-03T18:29:51.312Z,1.30
2023-02-03T18:32:21.225Z,1.30
2023-02-03T18:34:48.789Z,1.30
2023-02-03T18:37:17.345Z,1.30
2023-02-03T18:39:44.650Z,1.30
2023-02-03T18:42:12.093Z,1.30
2023-02-03T18:44:41.284Z,1.30
2023-02-03T18:47:08.775Z,1.30
2023-02-03T18:49:36.620Z,1.30
2023-02-03T18:52:04.979Z,1.30
2023-02-03T18:54:32.553Z,1.30
2023-02-03T18:57:00.354Z,1.30
2023-02-03T18:59:27.533Z,1.30
2023-02-03T19:01:54.996Z,1.20
2023-02-03T19:04:22.589Z,1.20
2023-02-03T19:06:51.514Z,1.20
2023-02-03T19:09:20.668Z,1.20
2023-02-03T19:11:48.429Z,1.20
2023-02-03T19:14:16.520Z,1.30
2023-02-03T19:16:44.440Z,1.20
2023-02-03T19:19:14.231Z,1.20
2023-02-03T19:21:41.752Z,1.20
2023-02-03T19:24:09.114Z,1.20
2023-02-03T19:26:36.650Z,1.20
2023-02-03T19:29:04.714Z,1.20
2023-02-03T19:31:32.483Z,1.20
2023-02-03T19:34:00.074Z,1.20
2023-02-03T19:36:29.445Z,1.10
2023-02-03T19:38:57.273Z,1.20
2023-02-03T19:41:26.341Z,1.10
2023-02-03T19:43:53.593Z,1.10
2023-02-03T19:46:21.957Z,1.10
2023-02-03T19:48:49.221Z,1.20
2023-02-03T19:51:17.409Z,1.20
2023-02-03T19:53:44.662Z,1.10
2023-02-03T19:56:13.647Z,1.10
2023-02-03T19:58:40.891Z,1.10
2023-02-03T20:01:10.212Z,1.10
2023-02-03T20:03:37.455Z,1.10
2023-02-03T20:06:05.069Z,1.10
2023-02-03T20:08:32.362Z,1.10
2023-02-03T20:10:59.808Z,1.10
2023-02-03T20:13:26.945Z,1.10
2023-02-03T20:15:54.537Z,1.10
2023-02-03T20:18:21.742Z,1.10
2023-02-03T20:20:55.218Z,1.10
2023-02-03T20:23:23.823Z,1.10
2023-02-03T20:25:55.042Z,1.00
2023-02-03T20:28:24.460Z,1.10
2023-02-03T20:30:58.214Z,1.00
2023-02-03T20:33:27.858Z,0.90
2023-02-03T20:35:55.842Z,0.90
2023-02-03T20:38:23.533Z,0.90
2023-02-03T20:40:51.183Z,1.00
2023-02-03T20:43:23.665Z,0.80
2023-02-03T20:45:52.309Z,0.80
2023-02-03T20:48:22.529Z,0.70
2023-02-03T20:50:50.381Z,0.70
2023-02-03T20:53:21.131Z,0.70
2023-02-03T20:55:50.124Z,0.70
2023-02-03T20:58:26.439Z,0.70
2023-02-03T21:00:57.321Z,0.60
2023-02-03T21:04:00.761Z,0.60
2023-02-03T21:06:30.650Z,0.60
2023-02-03T21:09:18.663Z,0.80
2023-02-03T21:11:47.459Z,0.70
2023-02-03T21:14:20.266Z,0.50
2023-02-03T21:16:47.890Z,0.50
2023-02-03T21:19:27.662Z,0.50
2023-02-03T21:21:56.065Z,0.50
2023-02-03T21:24:30.179Z,0.60
2023-02-03T21:26:59.416Z,0.50
2023-02-03T21:29:31.795Z,0.50
2023-02-03T21:31:59.990Z,0.60
2023-02-03T21:34:33.140Z,1.00
2023-02-03T21:37:41.781Z,0.70
2023-02-03T21:40:35.293Z,0.50
2023-02-03T21:43:03.480Z,0.60
2023-02-03T21:45:36.917Z,0.80
2023-02-03T21:48:31.008Z,0.60
2023-02-03T21:51:15.440Z,0.60
2023-02-03T21:53:56.852Z,0.60
2023-02-03T21:56:41.375Z,0.60
2023-02-03T21:59:21.314Z,0.70
2023-02-03T22:01:49.259Z,0.70
2023-02-03T22:04:16.641Z,1.00
2023-02-03T22:06:46.892Z,0.60
2023-02-03T22:09:17.415Z,0.70
2023-02-03T22:11:45.151Z,0.60
2023-02-03T22:14:16.637Z,0.80
2023-02-03T22:16:44.491Z,0.70
2023-02-03T22:19:12.112Z,0.70
2023-02-03T22:21:39.722Z,0.70
2023-02-03T22:24:07.193Z,0.90
2023-02-03T22:26:34.399Z,0.70
2023-02-03T22:29:02.619Z,1.00
2023-02-03T22:31:29.939Z,0.70
2023-02-03T22:33:57.473Z,0.70
2023-02-03T22:36:25.883Z,0.70
2023-02-03T22:38:53.088Z,0.70
2023-02-03T22:41:21.707Z,0.90
2023-02-03T22:43:48.933Z,0.70
2023-02-03T22:46:16.450Z,0.70
2023-02-03T22:48:43.602Z,0.70
2023-02-03T22:51:11.080Z,0.70
2023-02-03T22:53:39.541Z,0.70
2023-02-03T22:56:07.250Z,0.70
2023-02-03T22:58:34.398Z,0.70
2023-02-03T23:01:01.922Z,0.70
2023-02-03T23:03:32.855Z,0.70
2023-02-03T23:06:00.698Z,0.70
2023-02-03T23:08:27.911Z,0.70
2023-02-03T23:10:56.221Z,0.70
2023-02-03T23:13:23.501Z,0.70
2023-02-03T23:15:51.431Z,0.70
2023-02-03T23:18:18.750Z,0.70
2023-02-03T23:20:46.341Z,0.90
2023-02-03T23:23:14.317Z,0.70
2023-02-03T23:25:41.835Z,0.70
2023-02-03T23:28:09.011Z,0.70
2023-02-03T23:30:36.571Z,0.70
2023-02-03T23:33:03.761Z,0.70
2023-02-03T23:35:46.210Z,0.70
2023-02-03T23:38:14.979Z,0.70
2023-02-03T23:40:42.947Z,1.20
2023-02-03T23:43:10.297Z,0.70
2023-02-03T23:45:37.741Z,0.60
2023-02-03T23:48:05.349Z,0.60
2023-02-03T23:50:33.249Z,0.60
2023-02-03T23:53:00.458Z,1.10
2023-02-03T23:55:28.162Z,0.70
2023-02-03T23:57:55.292Z,0.70
